createdAt,value
2022-10-02T00:01:56.814Z,12.95
2022-10-02T00:05:14.562Z,14.65
2022-10-02T00:08:32.057Z,14.13
2022-10-02T00:11:45.519Z,13.77
2022-10-02T00:17:54.777Z,12.43
2022-10-02T00:21:00.431Z,11.02
2022-10-02T00:24:04.956Z,12.57
2022-10-02T00:27:36.571Z,10.13
2022-10-02T00:30:49.231Z,13.55
2022-10-02T00:34:27.007Z,11.83
2022-10-02T00:37:58.810Z,14.10
2022-10-02T00:41:25.572Z,13.20
2022-10-02T00:44:46.017Z,11.70
2022-10-02T00:48:21.028Z,16.88
2022-10-02T00:51:28.465Z,12.88
2022-10-02T00:55:08.320Z,14.25
2022-10-02T00:58:18.965Z,11.27
2022-10-02T01:01:35.717Z,13.80
2022-10-02T01:04:39.140Z,11.18
2022-10-02T01:10:44.294Z,11.23
2022-10-02T01:13:49.157Z,12.35
2022-10-02T01:16:50.792Z,12.40
2022-10-02T01:19:52.761Z,12.88
2022-10-02T01:23:09.768Z,13.32
2022-10-02T01:26:11.536Z,10.85
2022-10-02T01:29:13.687Z,12.13
2022-10-02T01:32:15.752Z,13.00
2022-10-02T01:35:20.554Z,12.32
2022-10-02T01:38:24.662Z,12.15
2022-10-02T01:41:26.434Z,10.13
2022-10-02T01:44:28.341Z,11.50
2022-10-02T01:47:35.994Z,10.63
2022-10-02T01:51:05.060Z,15.20
2022-10-02T01:54:17.270Z,10.40
2022-10-02T01:57:54.377Z,12.73
2022-10-02T02:01:12.783Z,9.93
2022-10-02T02:04:21.324Z,10.45
2022-10-02T02:07:35.344Z,13.65
2022-10-02T02:10:44.959Z,10.38
2022-10-02T02:14:11.373Z,10.50
2022-10-02T02:17:20.365Z,15.50
2022-10-02T02:20:28.428Z,14.85
2022-10-02T02:23:34.235Z,15.27
2022-10-02T02:26:36.872Z,15.13
2022-10-02T02:29:42.433Z,14.63
2022-10-02T02:32:50.303Z,13.73
2022-10-02T02:35:56.629Z,11.25
2022-10-02T02:39:03.361Z,14.13
2022-10-02T02:42:08.535Z,11.73
2022-10-02T02:45:12.804Z,16.25
2022-10-02T02:48:40.046Z,20.13
2022-10-02T02:51:44.328Z,15.00
2022-10-02T02:54:53.898Z,11.55
2022-10-02T02:58:02.356Z,9.52
2022-10-02T03:01:04.116Z,12.82
2022-10-02T03:04:06.420Z,10.32
2022-10-02T03:07:15.447Z,8.68
2022-10-02T03:10:25.353Z,8.30
2022-10-02T03:13:39.462Z,10.77
2022-10-02T03:17:15.901Z,7.65
2022-10-02T03:20:32.659Z,8.48
2022-10-02T03:23:50.027Z,15.35
2022-10-02T03:27:11.903Z,18.40
2022-10-02T03:30:16.098Z,22.95
2022-10-02T03:33:17.911Z,25.10
2022-10-02T03:36:21.363Z,23.23
2022-10-02T03:42:31.997Z,17.60
2022-10-02T03:45:50.483Z,11.45
2022-10-02T03:48:52.888Z,9.32
2022-10-02T03:51:54.472Z,9.60
2022-10-02T03:54:57.703Z,8.90
2022-10-02T03:58:05.155Z,17.58
2022-10-02T04:01:29.748Z,15.05
2022-10-02T04:04:55.091Z,20.90
2022-10-02T04:08:03.225Z,12.52
2022-10-02T04:11:13.637Z,15.85
2022-10-02T04:14:27.458Z,16.85
2022-10-02T04:17:38.624Z,10.25
2022-10-02T04:20:49.551Z,15.77
2022-10-02T04:23:57.326Z,17.35
2022-10-02T04:27:01.059Z,13.68
2022-10-02T04:30:09.441Z,12.32
2022-10-02T04:33:14.158Z,9.95
2022-10-02T04:36:26.994Z,16.75
2022-10-02T04:39:58.543Z,19.02
2022-10-02T04:43:28.227Z,10.98
2022-10-02T04:46:48.493Z,10.20
2022-10-02T04:49:50.036Z,11.70
2022-10-02T04:53:16.099Z,11.15
2022-10-02T04:56:40.685Z,12.40
2022-10-02T05:00:04.137Z,16.13
2022-10-02T05:03:08.562Z,15.80
2022-10-02T05:06:44.330Z,17.85
2022-10-02T05:10:02.364Z,9.95
2022-10-02T05:13:25.461Z,10.07
2022-10-02T05:16:39.748Z,16.13
2022-10-02T05:20:02.634Z,13.75
2022-10-02T05:23:08.111Z,10.48
2022-10-02T05:26:28.190Z,12.48
2022-10-02T05:30:05.810Z,16.50
2022-10-02T05:33:32.351Z,17.77
2022-10-02T05:36:46.287Z,12.23
2022-10-02T05:40:14.761Z,12.38
2022-10-02T05:43:27.677Z,6.68
2022-10-02T05:46:39.662Z,12.82
2022-10-02T05:49:59.988Z,10.63
2022-10-02T05:53:39.078Z,13.18
2022-10-02T05:56:50.893Z,11.55
2022-10-02T06:00:17.427Z,12.10
2022-10-02T06:03:30.969Z,12.13
2022-10-02T06:09:44.659Z,13.25
2022-10-02T06:12:55.108Z,14.73
2022-10-02T06:16:05.821Z,12.48
2022-10-02T06:19:32.557Z,12.52
2022-10-02T06:22:48.161Z,14.20
2022-10-02T06:26:01.390Z,14.68
2022-10-02T06:29:07.321Z,16.63
2022-10-02T06:32:19.050Z,11.65
2022-10-02T06:35:39.272Z,17.05
2022-10-02T06:38:48.683Z,14.80
2022-10-02T06:42:32.439Z,11.07
2022-10-02T06:46:08.608Z,17.83
2022-10-02T06:49:32.246Z,11.68
2022-10-02T06:56:00.550Z,12.48
2022-10-02T06:59:11.253Z,14.20
2022-10-02T07:02:50.563Z,11.68
2022-10-02T07:06:22.879Z,17.10
2022-10-02T07:09:42.884Z,12.90
2022-10-02T07:13:07.819Z,11.82
2022-10-02T07:16:42.615Z,9.93
2022-10-02T07:20:03.409Z,7.45
2022-10-02T07:23:13.454Z,10.57
2022-10-02T07:26:33.062Z,9.65
2022-10-02T07:29:39.934Z,10.40
2022-10-02T07:33:07.662Z,6.78
2022-10-02T07:36:13.968Z,6.53
2022-10-02T07:40:03.813Z,5.72
2022-10-02T07:43:26.383Z,8.80
2022-10-02T07:46:40.971Z,8.50
2022-10-02T07:49:55.650Z,8.98
2022-10-02T07:53:19.845Z,7.45
2022-10-02T07:56:23.434Z,9.43
2022-10-02T07:59:25.436Z,6.05
2022-10-02T08:02:47.248Z,5.32
2022-10-02T08:05:53.027Z,4.78
2022-10-02T08:09:23.345Z,4.20
2022-10-02T08:12:56.169Z,6.13
2022-10-02T08:16:07.264Z,3.63
2022-10-02T08:19:16.639Z,2.55
2022-10-02T08:22:41.098Z,3.00
2022-10-02T08:25:50.017Z,8.75
2022-10-02T08:29:00.148Z,5.45
2022-10-02T08:32:02.663Z,2.95
2022-10-02T08:35:14.162Z,5.65
2022-10-02T08:38:41.289Z,4.07
2022-10-02T08:42:20.184Z,2.30
2022-10-02T08:45:34.383Z,3.25
2022-10-02T08:49:01.990Z,3.92
2022-10-02T08:52:21.805Z,3.38
2022-10-02T08:55:47.789Z,3.08
2022-10-02T08:59:27.526Z,1.60
2022-10-02T09:02:50.257Z,2.92
2022-10-02T09:06:19.422Z,2.85
2022-10-02T09:09:55.814Z,3.40
2022-10-02T09:13:40.409Z,3.25
2022-10-02T09:17:00.605Z,2.83
2022-10-02T09:20:40.351Z,3.08
2022-10-02T09:23:56.915Z,2.92
2022-10-02T09:27:31.119Z,3.30
2022-10-02T09:30:51.126Z,2.22
2022-10-02T09:34:24.675Z,3.63
2022-10-02T09:37:28.262Z,2.80
2022-10-02T09:40:50.258Z,2.90
2022-10-02T09:44:29.467Z,3.03
2022-10-02T09:47:49.951Z,2.95
2022-10-02T09:51:09.641Z,2.58
2022-10-02T09:54:48.579Z,3.83
2022-10-02T09:58:21.685Z,6.00
2022-10-02T10:01:40.905Z,3.42
2022-10-02T10:05:18.002Z,3.75
2022-10-02T10:08:22.900Z,2.30
2022-10-02T10:11:58.612Z,2.78
2022-10-02T10:15:15.758Z,4.80
2022-10-02T10:18:29.583Z,3.05
2022-10-02T10:21:31.299Z,2.28
2022-10-02T10:24:51.714Z,4.35
2022-10-02T10:27:56.019Z,3.78
2022-10-02T10:31:35.970Z,2.55
2022-10-02T10:34:56.518Z,3.25
2022-10-02T10:38:40.106Z,3.88
2022-10-02T10:42:16.521Z,2.20
2022-10-02T10:45:54.154Z,8.05
2022-10-02T10:49:12.628Z,3.30
2022-10-02T10:52:20.307Z,5.13
2022-10-02T10:55:46.224Z,3.38
2022-10-02T10:58:56.573Z,5.25
2022-10-02T11:02:35.974Z,5.07
2022-10-02T11:06:03.551Z,6.45
2022-10-02T11:09:22.664Z,6.82
2022-10-02T11:12:49.304Z,5.82
2022-10-02T11:16:25.730Z,6.22
2022-10-02T11:20:01.032Z,5.18
2022-10-02T11:23:14.863Z,5.20
2022-10-02T11:26:36.667Z,4.93
2022-10-02T11:29:47.289Z,5.20
2022-10-02T11:33:30.469Z,5.30
2022-10-02T11:36:57.044Z,8.18
2022-10-02T11:40:01.500Z,6.55
2022-10-02T11:44:01.364Z,5.03
2022-10-02T11:47:18.501Z,4.55
2022-10-02T11:50:29.429Z,6.38
2022-10-02T11:53:49.263Z,7.28
2022-10-02T11:56:57.440Z,7.32
2022-10-02T12:00:14.810Z,5.50
2022-10-02T12:04:06.348Z,6.03
2022-10-02T12:07:39.058Z,6.65
2022-10-02T12:10:48.482Z,8.37
2022-10-02T12:14:13.303Z,7.45
2022-10-02T12:17:53.383Z,7.38
2022-10-02T12:21:23.105Z,6.78
2022-10-02T12:25:13.234Z,5.95
2022-10-02T12:28:14.851Z,5.88
2022-10-02T12:31:32.081Z,9.43
2022-10-02T12:34:48.427Z,9.32
2022-10-02T12:38:16.287Z,7.10
2022-10-02T12:41:36.442Z,6.50
2022-10-02T12:44:47.579Z,4.10
2022-10-02T12:48:12.950Z,2.80
2022-10-02T12:51:39.561Z,3.63
2022-10-02T12:54:59.772Z,3.83
2022-10-02T12:58:26.050Z,7.05
2022-10-02T13:01:52.613Z,6.85
2022-10-02T13:04:58.047Z,5.05
2022-10-02T13:08:21.035Z,5.18
2022-10-02T13:11:52.422Z,5.60
2022-10-02T13:15:12.097Z,4.07
2022-10-02T13:18:28.590Z,3.22
2022-10-02T13:21:48.970Z,3.97
2022-10-02T13:25:18.749Z,2.83
2022-10-02T13:28:38.597Z,5.38
2022-10-02T13:32:09.355Z,4.15
2022-10-02T13:35:24.949Z,2.72
2022-10-02T13:38:50.503Z,2.65
2022-10-02T13:42:21.914Z,3.58
2022-10-02T13:45:29.611Z,4.28
2022-10-02T13:48:40.412Z,5.43
2022-10-02T13:52:14.261Z,2.97
2022-10-02T13:55:21.917Z,3.45
2022-10-02T13:58:35.555Z,2.90
2022-10-02T14:02:08.242Z,5.57
2022-10-02T14:05:44.441Z,3.13
2022-10-02T14:09:10.300Z,4.78
2022-10-02T14:12:27.689Z,3.00
2022-10-02T14:15:52.602Z,4.95
2022-10-02T14:18:59.332Z,4.03
2022-10-02T14:22:22.727Z,4.13
2022-10-02T14:28:49.595Z,5.00
2022-10-02T14:32:10.481Z,5.38
2022-10-02T14:35:26.292Z,4.28
2022-10-02T14:38:35.542Z,4.63
2022-10-02T14:41:40.091Z,3.47
2022-10-02T14:45:04.086Z,3.40
2022-10-02T14:48:30.704Z,6.00
2022-10-02T14:51:53.727Z,3.63
2022-10-02T14:55:09.762Z,3.50
2022-10-02T14:58:29.027Z,7.47
2022-10-02T15:01:36.033Z,3.53
2022-10-02T15:05:34.442Z,4.60
2022-10-02T15:08:45.818Z,4.30
2022-10-02T15:11:59.541Z,3.15
2022-10-02T15:15:20.421Z,5.93
2022-10-02T15:18:21.947Z,4.63
2022-10-02T15:21:53.413Z,6.18
2022-10-02T15:24:57.726Z,4.45
2022-10-02T15:28:36.369Z,3.65
2022-10-02T15:31:55.658Z,6.00
2022-10-02T15:35:15.704Z,5.18
2022-10-02T15:38:23.188Z,7.63
2022-10-02T15:41:42.121Z,3.67
2022-10-02T15:45:06.759Z,4.35
2022-10-02T15:48:19.877Z,3.83
2022-10-02T15:51:24.462Z,5.28
2022-10-02T15:54:51.887Z,5.13
2022-10-02T15:58:20.089Z,5.32
2022-10-02T16:01:55.572Z,6.82
2022-10-02T16:05:20.321Z,9.13
2022-10-02T16:08:24.996Z,6.55
2022-10-02T16:11:51.757Z,4.30
2022-10-02T16:14:59.378Z,5.80
2022-10-02T16:18:33.763Z,6.28
2022-10-02T16:21:54.296Z,4.55
2022-10-02T16:25:20.842Z,3.58
2022-10-02T16:28:22.472Z,5.20
2022-10-02T16:31:24.141Z,5.53
2022-10-02T16:34:28.875Z,4.90
2022-10-02T16:37:45.236Z,8.35
2022-10-02T16:41:03.851Z,4.65
2022-10-02T16:44:37.437Z,6.97
2022-10-02T16:47:54.955Z,4.05
2022-10-02T16:51:12.683Z,4.75
2022-10-02T16:54:35.621Z,4.70
2022-10-02T16:57:45.418Z,6.05
2022-10-02T17:01:20.250Z,6.93
2022-10-02T17:04:56.516Z,8.80
2022-10-02T17:08:13.818Z,7.93
2022-10-02T17:11:36.474Z,5.93
2022-10-02T17:14:47.293Z,8.97
2022-10-02T17:18:27.186Z,6.13
2022-10-02T17:21:45.979Z,8.48
2022-10-02T17:24:51.292Z,3.80
2022-10-02T17:28:02.577Z,8.07
2022-10-02T17:31:05.962Z,9.20
2022-10-02T17:34:22.676Z,4.28
2022-10-02T17:37:57.064Z,6.65
2022-10-02T17:41:22.980Z,5.78
2022-10-02T17:44:35.263Z,5.53
2022-10-02T17:48:02.204Z,7.65
2022-10-02T17:51:50.767Z,8.27
2022-10-02T17:55:31.676Z,5.75
2022-10-02T17:59:02.879Z,7.10
2022-10-02T18:02:22.288Z,14.35
2022-10-02T18:05:43.580Z,11.07
2022-10-02T18:09:01.237Z,8.85
2022-10-02T18:12:20.999Z,12.23
2022-10-02T18:15:41.460Z,12.70
2022-10-02T18:19:16.514Z,8.07
2022-10-02T18:22:30.344Z,9.38
2022-10-02T18:26:03.176Z,10.93
2022-10-02T18:29:53.823Z,10.88
2022-10-02T18:32:55.673Z,12.45
2022-10-02T18:35:57.423Z,9.43
2022-10-02T18:39:06.585Z,11.18
2022-10-02T18:42:26.728Z,9.95
2022-10-02T18:45:48.371Z,12.60
2022-10-02T18:49:01.082Z,11.50
2022-10-02T18:52:39.844Z,10.95
2022-10-02T18:56:11.801Z,11.30
2022-10-02T18:59:40.740Z,12.05
2022-10-02T19:03:03.596Z,11.27
2022-10-02T19:06:34.372Z,15.38
2022-10-02T19:09:36.214Z,16.75
2022-10-02T19:12:42.971Z,14.60
2022-10-02T19:15:47.088Z,17.55
2022-10-02T19:18:48.866Z,16.90
2022-10-02T19:21:55.967Z,14.65
2022-10-02T19:25:16.105Z,11.05
2022-10-02T19:28:23.279Z,12.88
2022-10-02T19:31:31.320Z,13.20
2022-10-02T19:34:33.292Z,12.55
2022-10-02T19:37:41.552Z,12.48
2022-10-02T19:40:51.666Z,10.63
2022-10-02T19:43:58.961Z,14.35
2022-10-02T19:47:11.358Z,16.67
2022-10-02T19:50:27.872Z,11.52
2022-10-02T19:53:38.022Z,14.38
2022-10-02T19:56:44.708Z,16.90
2022-10-02T19:59:53.007Z,15.43
2022-10-02T20:02:57.984Z,16.92
2022-10-02T20:06:15.131Z,17.27
2022-10-02T20:09:35.556Z,13.82
2022-10-02T20:12:42.561Z,14.93
2022-10-02T20:16:15.853Z,11.30
2022-10-02T20:19:24.749Z,12.23
2022-10-02T20:22:35.308Z,14.73
2022-10-02T20:25:46.270Z,18.98
2022-10-02T20:28:58.114Z,21.98
2022-10-02T20:32:08.306Z,23.60
2022-10-02T20:35:22.066Z,21.45
2022-10-02T20:38:43.558Z,23.77
2022-10-02T20:41:58.781Z,15.15
2022-10-02T20:45:00.955Z,17.83
2022-10-02T20:48:21.845Z,19.50
2022-10-02T20:52:05.166Z,17.02
2022-10-02T20:55:30.257Z,18.23
2022-10-02T20:59:06.380Z,20.38
2022-10-02T21:02:23.193Z,19.38
2022-10-02T21:05:48.933Z,19.30
2022-10-02T21:09:24.093Z,28.95
2022-10-02T21:13:16.517Z,22.63
2022-10-02T21:16:33.293Z,18.95
2022-10-02T21:20:16.717Z,23.80
2022-10-02T21:23:47.368Z,24.42
2022-10-02T21:27:24.538Z,21.60
2022-10-02T21:30:42.500Z,19.33
2022-10-02T21:34:21.351Z,20.00
2022-10-02T21:37:53.604Z,17.83
2022-10-02T21:41:13.931Z,20.85
2022-10-02T21:44:49.270Z,18.75
2022-10-02T21:48:05.938Z,21.75
2022-10-02T21:51:38.199Z,21.02
2022-10-02T21:55:13.774Z,21.73
2022-10-02T21:58:52.846Z,21.95
2022-10-02T22:02:08.134Z,25.63
2022-10-02T22:05:38.190Z,23.42
2022-10-02T22:08:51.551Z,21.05
2022-10-02T22:12:17.990Z,23.70
2022-10-02T22:15:38.748Z,15.50
2022-10-02T22:18:51.675Z,14.48
2022-10-02T22:22:14.481Z,14.85
2022-10-02T22:25:37.395Z,14.23
2022-10-02T22:28:57.786Z,20.60
2022-10-02T22:32:40.187Z,17.52
2022-10-02T22:35:53.689Z,19.88
2022-10-02T22:39:31.612Z,17.55
2022-10-02T22:42:43.155Z,18.83
2022-10-02T22:45:52.639Z,15.90
2022-10-02T22:49:07.446Z,14.52
2022-10-02T22:52:30.420Z,15.25
2022-10-02T22:55:36.310Z,14.77
2022-10-02T22:58:44.801Z,19.35
2022-10-02T23:01:56.954Z,20.92
2022-10-02T23:05:05.927Z,25.95
2022-10-02T23:08:40.733Z,18.45
2022-10-02T23:11:55.224Z,15.52
2022-10-02T23:14:59.567Z,13.30
2022-10-02T23:18:12.349Z,12.50
2022-10-02T23:21:45.311Z,10.87
2022-10-02T23:25:19.575Z,17.02
2022-10-02T23:29:04.045Z,13.27
2022-10-02T23:32:24.450Z,12.32
2022-10-02T23:35:31.615Z,16.60
2022-10-02T23:39:11.554Z,14.25
2022-10-02T23:42:18.594Z,12.13
2022-10-02T23:45:27.727Z,14.45
2022-10-02T23:48:31.373Z,9.80
2022-10-02T23:51:50.990Z,9.77
2022-10-02T23:55:20.173Z,11.48
2022-10-02T23:59:07.741Z,9.80
